createdAt,value
2023-01-01T00:02:46.105Z,100406.88
2023-01-01T00:07:47.581Z,100397.41
2023-01-01T00:12:49.116Z,100390.94
2023-01-01T00:17:50.554Z,100383.41
2023-01-01T00:22:54.977Z,100378.88
2023-01-01T00:27:57.510Z,100382.41
2023-01-01T00:32:59.129Z,100377.53
2023-01-01T00:38:00.865Z,100374.06
2023-01-01T00:43:02.565Z,100380.06
2023-01-01T00:48:04.328Z,100377.63
2023-01-01T00:53:05.845Z,100376.22
2023-01-01T00:58:07.422Z,100378.63
2023-01-01T01:03:11.562Z,100365.97
2023-01-01T01:08:13.218Z,100370.47
2023-01-01T01:13:14.679Z,100368.50
2023-01-01T01:18:16.597Z,100383.44
2023-01-01T01:23:18.711Z,100387.34
2023-01-01T01:28:20.284Z,100396.09
2023-01-01T01:33:21.764Z,100396.41
2023-01-01T01:38:23.415Z,100420.09
2023-01-01T01:43:33.716Z,100434.94
2023-01-01T01:48:42.460Z,100423.69
2023-01-01T01:53:52.178Z,100425.63
2023-01-01T01:58:53.702Z,100438.84
2023-01-01T02:04:00.324Z,100440.03
2023-01-01T02:09:04.870Z,100439.25
2023-01-01T02:14:06.875Z,100413.53
2023-01-01T02:19:23.584Z,100416.59
2023-01-01T02:24:43.611Z,100441.44
2023-01-01T02:30:12.032Z,100435.81
2023-01-01T02:35:19.149Z,100441.66
2023-01-01T02:40:23.685Z,100422.19
2023-01-01T02:45:25.353Z,100418.16
2023-01-01T02:50:29.274Z,100433.56
2023-01-01T02:55:47.631Z,100436.19
2023-01-01T03:00:50.854Z,100437.41
2023-01-01T03:05:58.531Z,100437.53
2023-01-01T03:11:09.174Z,100446.97
2023-01-01T03:16:45.868Z,100452.06
2023-01-01T03:21:57.910Z,100453.88
2023-01-01T03:27:04.400Z,100451.69
2023-01-01T03:32:09.105Z,100449.53
2023-01-01T03:37:15.930Z,100460.66
2023-01-01T03:42:51.994Z,100457.00
2023-01-01T03:47:55.152Z,100470.81
2023-01-01T03:53:10.308Z,100471.94
2023-01-01T03:58:17.608Z,100465.94
2023-01-01T04:03:27.220Z,100468.59
2023-01-01T04:08:28.742Z,100463.34
2023-01-01T04:13:30.231Z,100466.09
2023-01-01T04:18:31.735Z,100475.53
2023-01-01T04:23:33.312Z,100485.91
2023-01-01T04:28:34.802Z,100483.22
2023-01-01T04:33:36.412Z,100488.59
2023-01-01T04:38:38.471Z,100496.47
2023-01-01T04:43:39.936Z,100485.72
2023-01-01T04:48:41.413Z,100489.88
2023-01-01T04:53:43.096Z,100502.63
2023-01-01T04:58:45.518Z,100498.88
2023-01-01T05:03:48.279Z,100500.63
2023-01-01T05:08:51.080Z,100494.59
2023-01-01T05:13:54.573Z,100507.22
2023-01-01T05:18:56.601Z,100504.38
2023-01-01T05:24:00.825Z,100509.28
2023-01-01T05:29:02.531Z,100517.09
2023-01-01T05:39:07.288Z,100525.44
2023-01-01T05:44:09.316Z,100523.50
2023-01-01T05:49:11.900Z,100521.25
2023-01-01T05:59:14.209Z,100535.47
2023-01-01T06:04:15.883Z,100541.06
2023-01-01T06:09:17.340Z,100540.34
2023-01-01T06:14:18.934Z,100540.34
2023-01-01T06:19:20.387Z,100538.53
2023-01-01T06:24:23.015Z,100543.41
2023-01-01T06:29:24.483Z,100559.44
2023-01-01T06:34:25.931Z,100573.31
2023-01-01T06:39:27.810Z,100580.13
2023-01-01T06:44:29.311Z,100595.03
2023-01-01T06:49:30.911Z,100590.75
2023-01-01T06:54:32.445Z,100584.00
2023-01-01T06:59:34.030Z,100590.59
2023-01-01T07:04:35.567Z,100582.78
2023-01-01T07:09:37.077Z,100601.56
2023-01-01T07:14:38.664Z,100622.09
2023-01-01T07:19:40.101Z,100631.56
2023-01-01T07:24:41.575Z,100639.25
2023-01-01T07:29:43.122Z,100634.59
2023-01-01T07:34:50.270Z,100638.66
2023-01-01T07:39:52.845Z,100632.69
2023-01-01T07:44:54.368Z,100639.31
2023-01-01T07:49:56.050Z,100644.94
2023-01-01T07:54:57.705Z,100654.31
2023-01-01T07:59:59.265Z,100654.56
2023-01-01T08:05:00.755Z,100659.19
2023-01-01T08:10:03.702Z,100658.81
2023-01-01T08:15:06.116Z,100651.06
2023-01-01T08:20:08.443Z,100666.91
2023-01-01T08:25:09.848Z,100675.75
2023-01-01T08:30:14.011Z,100676.00
2023-01-01T08:35:15.618Z,100665.50
2023-01-01T08:40:17.077Z,100679.03
2023-01-01T08:45:18.698Z,100691.69
2023-01-01T08:50:20.341Z,100704.41
2023-01-01T08:55:21.911Z,100705.97
2023-01-01T09:00:23.439Z,100715.38
2023-01-01T09:05:25.047Z,100712.63
2023-01-01T09:10:26.668Z,100709.56
2023-01-01T09:15:28.685Z,100706.28
2023-01-01T09:20:30.510Z,100692.09
2023-01-01T09:25:32.639Z,100687.81
2023-01-01T09:30:35.150Z,100688.78
2023-01-01T09:35:36.629Z,100700.09
2023-01-01T09:41:00.246Z,100705.75
2023-01-01T09:46:07.873Z,100726.81
2023-01-01T09:51:16.031Z,100730.75
2023-01-01T09:56:21.904Z,100739.22
2023-01-01T10:01:49.396Z,100739.53
2023-01-01T10:07:29.093Z,100738.56
2023-01-01T10:13:06.155Z,100745.19
2023-01-01T10:18:17.933Z,100748.19
2023-01-01T10:23:23.661Z,100742.06
2023-01-01T10:28:34.906Z,100728.81
2023-01-01T10:33:36.485Z,100724.00
2023-01-01T10:38:39.294Z,100735.31
2023-01-01T10:43:40.723Z,100730.72
2023-01-01T10:49:03.990Z,100716.78
2023-01-01T10:54:31.119Z,100726.25
2023-01-01T10:59:39.247Z,100715.66
2023-01-01T11:04:40.883Z,100701.47
2023-01-01T11:09:52.180Z,100698.81
2023-01-01T11:15:05.701Z,100690.91
2023-01-01T11:20:07.592Z,100695.09
2023-01-01T11:25:21.467Z,100703.72
2023-01-01T11:30:28.561Z,100697.44
2023-01-01T11:35:51.128Z,100686.28
2023-01-01T11:40:55.452Z,100689.22
2023-01-01T11:45:58.709Z,100699.25
2023-01-01T11:51:03.347Z,100689.41
2023-01-01T11:56:13.051Z,100697.75
2023-01-01T12:01:29.273Z,100696.25
2023-01-01T12:06:37.774Z,100695.84
2023-01-01T12:11:48.304Z,100684.34
2023-01-01T12:16:55.120Z,100684.78
2023-01-01T12:21:59.835Z,100691.59
2023-01-01T12:27:16.457Z,100680.50
2023-01-01T12:32:47.133Z,100693.13
2023-01-01T12:38:16.566Z,100694.06
2023-01-01T12:43:33.798Z,100698.66
2023-01-01T12:48:35.237Z,100701.84
2023-01-01T12:53:36.810Z,100695.97
2023-01-01T12:58:43.794Z,100690.81
2023-01-01T13:04:10.598Z,100682.19
2023-01-01T13:09:21.630Z,100674.38
2023-01-01T13:14:23.287Z,100674.06
2023-01-01T13:19:32.768Z,100691.50
2023-01-01T13:24:34.304Z,100688.72
2023-01-01T13:29:43.957Z,100668.41
2023-01-01T13:35:02.211Z,100678.13
2023-01-01T13:40:31.101Z,100676.19
2023-01-01T13:46:10.378Z,100663.66
2023-01-01T13:51:01.434Z,100662.97
2023-01-01T13:56:12.628Z,100674.31
2023-01-01T14:01:16.973Z,100668.31
2023-01-01T14:06:42.024Z,100679.50
2023-01-01T14:11:43.596Z,100662.28
2023-01-01T14:16:45.183Z,100650.00
2023-01-01T14:21:47.215Z,100654.59
2023-01-01T14:26:49.674Z,100672.00
2023-01-01T14:31:51.256Z,100687.06
2023-01-01T14:36:55.637Z,100682.03
2023-01-01T14:42:06.779Z,100672.91
2023-01-01T14:47:25.501Z,100666.03
2023-01-01T14:52:29.634Z,100674.28
2023-01-01T14:57:37.244Z,100680.56
2023-01-01T15:02:40.111Z,100691.81
2023-01-01T15:07:41.733Z,100686.38
2023-01-01T15:12:43.376Z,100695.84
2023-01-01T15:17:47.749Z,100694.16
2023-01-01T15:22:50.893Z,100678.16
2023-01-01T15:27:54.968Z,100670.09
2023-01-01T15:33:05.454Z,100679.00
2023-01-01T15:38:24.062Z,100661.16
2023-01-01T15:43:28.006Z,100660.75
2023-01-01T15:48:36.069Z,100669.47
2023-01-01T15:53:50.450Z,100679.25
2023-01-01T15:59:03.737Z,100682.03
2023-01-01T16:04:28.802Z,100685.38
2023-01-01T16:09:30.919Z,100681.19
2023-01-01T16:14:32.470Z,100674.16
2023-01-01T16:19:34.994Z,100661.25
2023-01-01T16:24:36.550Z,100659.56
2023-01-01T16:29:38.398Z,100657.91
2023-01-01T16:34:41.006Z,100636.16
2023-01-01T16:39:42.623Z,100632.81
2023-01-01T16:44:44.338Z,100630.03
2023-01-01T16:49:46.263Z,100641.00
2023-01-01T16:54:47.848Z,100639.06
2023-01-01T16:59:49.367Z,100622.75
2023-01-01T17:04:50.902Z,100618.41
2023-01-01T17:09:52.361Z,100625.53
2023-01-01T17:14:54.068Z,100623.88
2023-01-01T17:19:55.585Z,100609.34
2023-01-01T17:24:57.137Z,100594.44
2023-01-01T17:29:58.686Z,100579.25
2023-01-01T17:35:03.263Z,100572.13
2023-01-01T17:40:05.236Z,100568.78
2023-01-01T17:45:07.697Z,100571.84
2023-01-01T17:50:09.449Z,100557.56
2023-01-01T17:55:10.900Z,100547.31
2023-01-01T18:00:12.875Z,100564.84
2023-01-01T18:05:14.635Z,100574.28
2023-01-01T18:10:16.226Z,100562.69
2023-01-01T18:15:17.684Z,100565.88
2023-01-01T18:20:19.446Z,100560.13
2023-01-01T18:25:20.947Z,100561.19
2023-01-01T18:30:23.115Z,100556.56
2023-01-01T18:35:24.803Z,100535.66
2023-01-01T18:40:30.739Z,100545.81
2023-01-01T18:45:34.454Z,100537.69
2023-01-01T18:50:36.056Z,100536.72
2023-01-01T18:55:37.509Z,100509.03
2023-01-01T19:00:38.998Z,100497.50
2023-01-01T19:05:40.721Z,100502.31
2023-01-01T19:50:50.125Z,100463.75
2023-01-01T19:55:51.702Z,100449.19
2023-01-01T20:00:53.288Z,100444.59
2023-01-01T20:05:54.829Z,100443.50
2023-01-01T20:10:56.632Z,100428.19
2023-01-01T20:15:58.244Z,100424.88
2023-01-01T20:20:59.836Z,100437.41
2023-01-01T20:26:01.495Z,100441.09
2023-01-01T20:31:02.962Z,100445.69
2023-01-01T20:36:04.769Z,100439.88
2023-01-01T20:41:06.345Z,100429.44
2023-01-01T20:46:07.908Z,100426.47
2023-01-01T20:51:09.514Z,100422.88
2023-01-01T20:56:11.003Z,100432.09
2023-01-01T21:01:12.928Z,100430.16
2023-01-01T21:06:20.021Z,100426.25
2023-01-01T21:11:25.471Z,100426.84
2023-01-01T21:16:35.854Z,100432.16
2023-01-01T21:21:54.771Z,100424.59
2023-01-01T21:27:10.741Z,100429.38
2023-01-01T21:32:33.287Z,100423.22
2023-01-01T21:37:41.759Z,100405.97
2023-01-01T21:42:43.260Z,100407.81
2023-01-01T21:47:45.135Z,100415.06
2023-01-01T21:52:47.720Z,100422.31
2023-01-01T21:57:49.523Z,100414.06
2023-01-01T22:02:51.183Z,100403.34
2023-01-01T22:08:00.017Z,100404.47
2023-01-01T22:13:02.055Z,100397.78
2023-01-01T22:18:09.793Z,100410.03
2023-01-01T22:23:27.556Z,100399.03
2023-01-01T22:28:42.416Z,100413.78
2023-01-01T22:33:46.537Z,100422.16
2023-01-01T22:38:48.237Z,100423.00
2023-01-01T22:43:58.072Z,100422.31
2023-01-01T22:49:02.623Z,100432.91
2023-01-01T22:54:04.600Z,100426.47
2023-01-01T22:59:06.191Z,100421.28
2023-01-01T23:04:07.675Z,100425.19
2023-01-01T23:09:09.347Z,100433.59
2023-01-01T23:14:11.035Z,100426.56
2023-01-01T23:19:12.523Z,100434.66
2023-01-01T23:24:17.042Z,100398.44
2023-01-01T23:29:20.205Z,100427.16
2023-01-01T23:34:21.856Z,100410.31
2023-01-01T23:39:23.361Z,100410.69
2023-01-01T23:44:24.897Z,100411.25
2023-01-01T23:49:27.471Z,100402.34
2023-01-01T23:54:29.604Z,100395.78
2023-01-01T23:59:32.271Z,100381.72
